createdAt,value
2019-06-08T00:02:23.994Z,100921.53
2019-06-08T00:05:27.707Z,100932.73
2019-06-08T00:08:31.444Z,100935.39
2019-06-08T00:11:35.146Z,100937.61
2019-06-08T00:14:39.224Z,100935.89
2019-06-08T00:17:42.952Z,100929.17
2019-06-08T00:20:47.010Z,100944.69
2019-06-08T00:23:50.748Z,100961.30
2019-06-08T00:26:54.446Z,100939.80
2019-06-08T00:29:58.426Z,100938.74
2019-06-08T00:33:02.148Z,100926.11
2019-06-08T00:36:05.844Z,100927.94
2019-06-08T00:39:09.824Z,100930.70
2019-06-08T00:42:13.538Z,100925.45
2019-06-08T00:45:17.591Z,100930.90
2019-06-08T00:48:22.569Z,100945.42
2019-06-08T00:51:26.621Z,100931.86
2019-06-08T00:54:30.321Z,100938.35
2019-06-08T00:57:34.590Z,100933.33
2019-06-08T01:00:38.757Z,100933.33
2019-06-08T01:03:42.480Z,100942.25
2019-06-08T01:06:46.202Z,100925.03
2019-06-08T01:09:50.218Z,100914.91
2019-06-08T01:12:54.015Z,100899.45
2019-06-08T01:15:58.056Z,100920.66
2019-06-08T01:19:01.845Z,100910.00
2019-06-08T01:22:05.622Z,100928.64
2019-06-08T01:25:09.717Z,100937.32
2019-06-08T01:28:13.690Z,100944.94
2019-06-08T01:31:17.416Z,100944.14
2019-06-08T01:34:22.792Z,100959.43
2019-06-08T01:37:27.047Z,100947.59
2019-06-08T01:40:31.531Z,100926.58
2019-06-08T01:43:35.296Z,100898.28
2019-06-08T01:46:39.168Z,100861.86
2019-06-08T01:49:42.915Z,100849.95
2019-06-08T01:52:46.627Z,100877.11
2019-06-08T01:55:50.662Z,100929.42
2019-06-08T01:58:54.423Z,100942.97
2019-06-08T02:01:58.457Z,100942.28
2019-06-08T02:05:02.414Z,100957.44
2019-06-08T02:08:06.226Z,100919.34
2019-06-08T02:11:10.397Z,100860.65
2019-06-08T02:14:14.099Z,100873.84
2019-06-08T02:17:18.259Z,100937.69
2019-06-08T02:20:22.275Z,100954.78
2019-06-08T02:23:26.965Z,100969.27
2019-06-08T02:26:32.084Z,100975.30
2019-06-08T02:29:36.108Z,100967.88
2019-06-08T02:32:40.590Z,100968.48
2019-06-08T02:35:44.342Z,100964.61
2019-06-08T02:38:48.199Z,100980.27
2019-06-08T02:41:51.908Z,100987.20
2019-06-08T02:44:55.856Z,100995.09
2019-06-08T02:47:59.566Z,100992.48
2019-06-08T02:51:04.075Z,100992.89
2019-06-08T02:54:07.776Z,100978.80
2019-06-08T02:57:13.657Z,100970.97
2019-06-08T03:00:17.621Z,100980.64
2019-06-08T03:03:21.691Z,100983.86
2019-06-08T03:06:30.366Z,100986.84
2019-06-08T03:09:36.512Z,100985.55
2019-06-08T03:12:42.527Z,100979.78
2019-06-08T03:15:45.950Z,100988.56
2019-06-08T03:18:49.768Z,100989.95
2019-06-08T03:21:53.477Z,100978.75
2019-06-08T03:24:57.162Z,100960.09
2019-06-08T03:28:01.349Z,100963.88
2019-06-08T03:31:05.421Z,100957.67
2019-06-08T03:34:09.320Z,100970.02
2019-06-08T03:37:13.051Z,100964.31
2019-06-08T03:40:17.798Z,100940.62
2019-06-08T03:43:21.508Z,100969.70
2019-06-08T03:46:25.209Z,100981.96
2019-06-08T03:49:42.954Z,100957.58
2019-06-08T03:52:37.645Z,100964.83
2019-06-08T03:55:43.056Z,100959.14
2019-06-08T03:58:48.021Z,100957.52
2019-06-08T04:01:52.229Z,100957.19
2019-06-08T04:04:55.943Z,100971.28
2019-06-08T04:07:59.646Z,100965.53
2019-06-08T04:11:03.654Z,100978.92
2019-06-08T04:14:07.535Z,100982.02
2019-06-08T04:17:11.487Z,100982.03
2019-06-08T04:20:15.776Z,100981.72
2019-06-08T04:23:19.883Z,100977.20
2019-06-08T04:26:23.899Z,100967.08
2019-06-08T04:29:27.647Z,100975.43
2019-06-08T04:32:32.262Z,100994.17
2019-06-08T04:35:38.025Z,101017.02
2019-06-08T04:38:43.148Z,101009.81
2019-06-08T04:41:47.277Z,101017.70
2019-06-08T04:44:50.985Z,101034.05
2019-06-08T04:47:55.501Z,101054.83
2019-06-08T04:50:59.284Z,101059.56
2019-06-08T04:54:02.997Z,101065.67
2019-06-08T04:57:06.702Z,101067.63
2019-06-08T05:00:12.673Z,101070.29
2019-06-08T05:03:16.399Z,101063.98
2019-06-08T05:06:20.120Z,101056.46
2019-06-08T05:09:24.182Z,101055.37
2019-06-08T05:12:28.002Z,101051.46
2019-06-08T05:15:31.800Z,101048.55
2019-06-08T05:18:35.571Z,101042.62
2019-06-08T05:21:39.590Z,101047.48
2019-06-08T05:24:43.527Z,101059.23
2019-06-08T05:27:47.406Z,101066.91
2019-06-08T05:30:51.151Z,101080.57
2019-06-08T05:33:54.853Z,101088.90
2019-06-08T05:36:58.578Z,101094.70
2019-06-08T05:40:02.637Z,101107.33
2019-06-08T05:43:06.314Z,101100.59
2019-06-08T05:46:10.360Z,101090.44
2019-06-08T05:49:14.066Z,101090.44
2019-06-08T05:52:18.470Z,101069.36
2019-06-08T05:55:22.242Z,101056.76
2019-06-08T05:58:26.023Z,101064.52
2019-06-08T06:01:29.728Z,101080.57
2019-06-08T06:04:33.499Z,101097.30
2019-06-08T06:07:37.213Z,101114.42
2019-06-08T06:10:40.920Z,101112.47
2019-06-08T06:13:45.192Z,101107.59
2019-06-08T06:16:49.171Z,101093.36
2019-06-08T06:19:52.988Z,101125.30
2019-06-08T06:22:58.596Z,101116.98
2019-06-08T06:26:02.589Z,101121.31
2019-06-08T06:29:06.445Z,101113.62
2019-06-08T06:32:10.429Z,101113.62
2019-06-08T06:35:14.462Z,101115.78
2019-06-08T06:38:18.247Z,101124.56
2019-06-08T06:41:22.352Z,101126.81
2019-06-08T06:44:26.056Z,101119.84
2019-06-08T06:47:31.243Z,101131.00
2019-06-08T06:50:35.237Z,101127.34
2019-06-08T06:53:38.944Z,101124.44
2019-06-08T06:56:43.155Z,101127.59
2019-06-08T06:59:47.443Z,101137.97
2019-06-08T07:02:51.802Z,101152.53
2019-06-08T07:05:55.815Z,101163.73
2019-06-08T07:08:59.776Z,101164.50
2019-06-08T07:12:03.540Z,101157.77
2019-06-08T07:15:08.229Z,101156.59
2019-06-08T07:18:12.183Z,101148.39
2019-06-08T07:21:16.166Z,101159.67
2019-06-08T07:24:19.880Z,101164.95
2019-06-08T07:27:23.675Z,101164.87
2019-06-08T07:30:27.426Z,101154.28
2019-06-08T07:33:31.114Z,101159.51
2019-06-08T07:36:34.824Z,101173.09
2019-06-08T07:39:38.569Z,101179.06
2019-06-08T07:42:45.123Z,101177.02
2019-06-08T07:45:49.853Z,101163.92
2019-06-08T07:48:54.376Z,101181.23
2019-06-08T07:52:09.493Z,101180.68
2019-06-08T07:55:04.616Z,101193.09
2019-06-08T07:58:08.332Z,101188.93
2019-06-08T08:01:12.150Z,101198.90
2019-06-08T08:04:16.137Z,101208.39
2019-06-08T08:07:19.861Z,101203.27
2019-06-08T08:10:23.731Z,101198.94
2019-06-08T08:13:27.430Z,101219.90
2019-06-08T08:16:31.536Z,101208.22
2019-06-08T08:19:35.359Z,101207.94
2019-06-08T08:22:39.117Z,101211.94
2019-06-08T08:25:42.843Z,101213.66
2019-06-08T08:28:50.065Z,101213.35
2019-06-08T08:31:53.394Z,101203.41
2019-06-08T08:34:59.226Z,101208.30
2019-06-08T08:38:04.607Z,101208.25
2019-06-08T08:41:10.904Z,101207.11
2019-06-08T08:44:14.349Z,101198.69
2019-06-08T08:47:18.802Z,101199.45
2019-06-08T08:50:22.743Z,101215.73
2019-06-08T08:53:27.996Z,101226.27
2019-06-08T08:56:31.769Z,101213.05
2019-06-08T08:59:38.119Z,101228.56
2019-06-08T09:02:41.413Z,101248.67
2019-06-08T09:05:45.570Z,101226.53
2019-06-08T09:08:49.384Z,101239.60
2019-06-08T09:11:54.882Z,101240.34
2019-06-08T09:15:01.750Z,101252.03
2019-06-08T09:18:04.242Z,101248.62
2019-06-08T09:21:08.533Z,101257.61
2019-06-08T09:24:12.593Z,101256.07
2019-06-08T09:27:17.960Z,101265.80
2019-06-08T09:30:21.898Z,101274.00
2019-06-08T09:33:25.597Z,101271.16
2019-06-08T09:36:29.466Z,101285.03
2019-06-08T09:39:33.426Z,101298.57
2019-06-08T09:42:37.136Z,101286.34
2019-06-08T09:45:40.897Z,101291.37
2019-06-08T09:48:44.600Z,101288.95
2019-06-08T09:51:48.777Z,101287.09
2019-06-08T09:54:54.177Z,101306.47
2019-06-08T09:58:01.918Z,101302.09
2019-06-08T10:01:05.733Z,101299.79
2019-06-08T10:04:09.440Z,101303.00
2019-06-08T10:07:13.381Z,101302.72
2019-06-08T10:10:18.134Z,101308.77
2019-06-08T10:13:22.051Z,101305.02
2019-06-08T10:16:28.021Z,101311.34
2019-06-08T10:19:31.175Z,101303.48
2019-06-08T10:22:34.871Z,101324.61
2019-06-08T10:25:38.655Z,101339.97
2019-06-08T10:28:42.369Z,101355.56
2019-06-08T10:31:48.202Z,101346.41
2019-06-08T10:34:51.910Z,101336.28
2019-06-08T10:37:58.543Z,101347.53
2019-06-08T10:41:10.761Z,101353.85
2019-06-08T10:44:11.750Z,101346.16
2019-06-08T10:47:13.510Z,101356.38
2019-06-08T10:50:19.177Z,101357.58
2019-06-08T10:53:23.026Z,101367.70
2019-06-08T10:56:28.414Z,101380.41
2019-06-08T10:59:32.512Z,101369.13
2019-06-08T11:02:37.613Z,101377.55
2019-06-08T11:05:41.643Z,101370.93
2019-06-08T11:08:45.374Z,101378.56
2019-06-08T11:11:49.111Z,101391.25
2019-06-08T11:14:52.811Z,101401.34
2019-06-08T11:18:00.397Z,101395.27
2019-06-08T11:21:03.662Z,101409.56
2019-06-08T11:24:23.341Z,101402.58
2019-06-08T11:27:13.756Z,101401.42
2019-06-08T11:30:23.634Z,101407.05
2019-06-08T11:33:23.294Z,101401.80
2019-06-08T11:36:28.184Z,101414.61
2019-06-08T11:39:32.031Z,101409.64
2019-06-08T11:42:38.632Z,101414.84
2019-06-08T11:45:41.734Z,101423.81
2019-06-08T11:48:45.487Z,101443.80
2019-06-08T11:51:49.198Z,101417.61
2019-06-08T11:54:52.888Z,101422.34
2019-06-08T11:57:58.608Z,101443.05
2019-06-08T12:01:11.642Z,101444.88
2019-06-08T12:04:12.927Z,101449.83
2019-06-08T12:07:16.794Z,101441.27
2019-06-08T12:10:20.806Z,101440.83
2019-06-08T12:13:27.603Z,101442.12
2019-06-08T12:16:30.293Z,101448.08
2019-06-08T12:19:33.986Z,101453.77
2019-06-08T12:22:40.108Z,101445.67
2019-06-08T12:25:43.185Z,101456.93
2019-06-08T12:28:48.608Z,101463.44
2019-06-08T12:31:52.466Z,101444.22
2019-06-08T12:34:59.743Z,101438.89
2019-06-08T12:38:01.657Z,101444.81
2019-06-08T12:41:07.942Z,101443.87
2019-06-08T12:44:14.632Z,101442.55
2019-06-08T12:47:20.866Z,101434.98
2019-06-08T12:50:22.153Z,101429.70
2019-06-08T12:53:28.141Z,101425.58
2019-06-08T12:56:31.472Z,101415.36
2019-06-08T12:59:35.551Z,101429.10
2019-06-08T13:02:39.691Z,101424.50
2019-06-08T13:05:43.480Z,101437.77
2019-06-08T13:08:47.777Z,101427.67
2019-06-08T13:11:51.997Z,101438.05
2019-06-08T13:14:58.052Z,101424.26
2019-06-08T13:18:01.552Z,101433.80
2019-06-08T13:21:18.705Z,101442.95
2019-06-08T13:24:11.346Z,101445.64
2019-06-08T13:27:17.669Z,101444.30
2019-06-08T13:30:25.891Z,101446.92
2019-06-08T13:33:28.062Z,101456.14
2019-06-08T13:36:32.200Z,101446.34
2019-06-08T13:39:38.661Z,101451.56
2019-06-08T13:42:42.187Z,101468.06
2019-06-08T13:45:49.034Z,101460.19
2019-06-08T13:48:51.545Z,101453.09
2019-06-08T13:51:58.136Z,101457.52
2019-06-08T13:55:00.787Z,101460.06
2019-06-08T13:58:04.593Z,101441.88
2019-06-08T14:01:09.977Z,101454.31
2019-06-08T14:04:14.979Z,101453.22
2019-06-08T14:07:24.536Z,101471.18
2019-06-08T14:10:33.931Z,101465.37
2019-06-08T14:13:38.120Z,101472.47
2019-06-08T14:16:42.833Z,101465.38
2019-06-08T14:19:48.331Z,101476.20
2019-06-08T14:22:52.197Z,101480.72
2019-06-08T14:25:59.416Z,101483.33
2019-06-08T14:29:02.070Z,101476.80
2019-06-08T14:32:07.832Z,101479.09
2019-06-08T14:35:11.190Z,101481.58
2019-06-08T14:38:14.895Z,101474.70
2019-06-08T14:41:19.799Z,101478.33
2019-06-08T14:44:24.112Z,101490.73
2019-06-08T14:47:30.030Z,101491.94
2019-06-08T14:50:33.561Z,101487.64
2019-06-08T14:53:38.688Z,101499.34
2019-06-08T14:56:42.507Z,101490.14
2019-06-08T14:59:50.092Z,101473.63
2019-06-08T15:02:51.971Z,101471.61
2019-06-08T15:05:57.758Z,101484.42
2019-06-08T15:09:01.933Z,101486.56
2019-06-08T15:12:06.167Z,101479.33
2019-06-08T15:15:11.193Z,101481.28
2019-06-08T15:18:15.207Z,101491.29
2019-06-08T15:21:21.349Z,101487.92
2019-06-08T15:24:24.657Z,101494.06
2019-06-08T15:27:31.978Z,101499.06
2019-06-08T15:30:33.892Z,101501.47
2019-06-08T15:33:38.406Z,101499.45
2019-06-08T15:36:42.183Z,101505.77
2019-06-08T15:39:48.650Z,101520.29
2019-06-08T15:42:51.933Z,101513.17
2019-06-08T15:45:58.952Z,101512.97
2019-06-08T15:49:01.380Z,101524.08
2019-06-08T15:52:05.408Z,101523.56
2019-06-08T15:55:11.262Z,101526.81
2019-06-08T15:58:17.821Z,101530.34
2019-06-08T16:01:21.276Z,101529.30
2019-06-08T16:04:25.686Z,101528.31
2019-06-08T16:07:31.282Z,101529.28
2019-06-08T16:10:34.860Z,101530.52
2019-06-08T16:13:38.826Z,101524.87
2019-06-08T16:16:42.519Z,101535.72
2019-06-08T16:19:46.239Z,101530.05
2019-06-08T16:22:50.183Z,101527.38
2019-06-08T16:25:54.011Z,101529.39
2019-06-08T16:28:58.027Z,101526.21
2019-06-08T16:32:01.993Z,101519.13
2019-06-08T16:35:06.637Z,101527.75
2019-06-08T16:38:10.590Z,101517.47
2019-06-08T16:41:14.313Z,101518.74
2019-06-08T16:44:18.356Z,101522.94
2019-06-08T16:47:22.071Z,101531.69
2019-06-08T16:50:25.795Z,101526.30
2019-06-08T16:53:29.836Z,101531.63
2019-06-08T16:56:34.152Z,101534.70
2019-06-08T16:59:38.705Z,101541.02
2019-06-08T17:02:42.631Z,101538.80
2019-06-08T17:06:01.584Z,101536.97
2019-06-08T17:09:16.809Z,101541.38
2019-06-08T17:12:25.278Z,101544.29
2019-06-08T17:15:56.253Z,101550.33
2019-06-08T17:19:13.332Z,101545.95
2019-06-08T17:22:22.541Z,101548.64
2019-06-08T17:25:42.612Z,101550.39
2019-06-08T17:28:56.873Z,101556.16
2019-06-08T17:32:00.605Z,101558.03
2019-06-08T17:35:04.706Z,101567.69
2019-06-08T17:38:08.686Z,101560.13
2019-06-08T17:41:12.812Z,101555.05
2019-06-08T17:44:16.545Z,101560.50
2019-06-08T17:47:23.867Z,101568.07
2019-06-08T17:50:26.072Z,101561.43
2019-06-08T17:53:30.310Z,101558.47
2019-06-08T17:56:35.150Z,101551.34
2019-06-08T17:59:39.510Z,101561.33
2019-06-08T18:02:45.238Z,101557.27
2019-06-08T18:05:49.080Z,101553.75
2019-06-08T18:08:53.427Z,101549.52
2019-06-08T18:11:59.251Z,101552.85
2019-06-08T18:15:02.621Z,101553.44
2019-06-08T18:18:08.584Z,101557.83
2019-06-08T18:21:12.417Z,101557.45
2019-06-08T18:24:17.541Z,101568.34
2019-06-08T18:27:21.517Z,101560.28
2019-06-08T18:30:27.488Z,101563.24
2019-06-08T18:33:30.811Z,101574.09
2019-06-08T18:36:35.627Z,101574.69
2019-06-08T18:39:42.730Z,101579.69
2019-06-08T18:42:48.470Z,101575.55
2019-06-08T18:45:51.782Z,101579.59
2019-06-08T18:48:57.922Z,101585.64
2019-06-08T18:52:02.068Z,101582.48
2019-06-08T18:55:08.185Z,101587.53
2019-06-08T18:58:20.663Z,101584.59
2019-06-08T19:01:21.632Z,101592.36
2019-06-08T19:04:22.757Z,101599.09
2019-06-08T19:07:28.320Z,101591.34
2019-06-08T19:10:33.613Z,101601.23
2019-06-08T19:13:38.095Z,101601.34
2019-06-08T19:16:44.323Z,101616.30
2019-06-08T19:19:52.006Z,101624.89
2019-06-08T19:22:54.396Z,101647.33
2019-06-08T19:26:00.405Z,101650.22
2019-06-08T19:29:03.703Z,101664.20
2019-06-08T19:32:07.531Z,101669.38
2019-06-08T19:35:11.741Z,101667.52
2019-06-08T19:38:17.982Z,101669.00
2019-06-08T19:41:21.175Z,101674.23
2019-06-08T19:44:24.889Z,101679.77
2019-06-08T19:47:28.828Z,101670.56
2019-06-08T19:50:32.820Z,101671.42
2019-06-08T19:53:42.202Z,101674.23
2019-06-08T19:56:43.247Z,101670.16
2019-06-08T19:59:47.566Z,101664.47
2019-06-08T20:02:53.312Z,101669.67
2019-06-08T20:05:56.695Z,101675.05
2019-06-08T20:09:00.697Z,101672.88
2019-06-08T20:12:04.476Z,101684.45
2019-06-08T20:15:08.759Z,101687.52
2019-06-08T20:18:12.515Z,101681.25
2019-06-08T20:21:18.132Z,101681.25
2019-06-08T20:24:21.849Z,101693.16
2019-06-08T20:27:27.581Z,101681.95
2019-06-08T20:30:31.334Z,101698.37
2019-06-08T20:33:37.680Z,101697.34
2019-06-08T20:36:40.516Z,101708.04
2019-06-08T20:39:59.416Z,101704.55
2019-06-08T20:42:53.301Z,101713.28
2019-06-08T20:45:57.390Z,101710.65
2019-06-08T20:49:00.795Z,101718.20
2019-06-08T20:52:04.609Z,101719.27
2019-06-08T20:55:08.487Z,101725.69
2019-06-08T20:58:12.208Z,101727.84
2019-06-08T21:01:17.869Z,101738.27
2019-06-08T21:04:21.644Z,101738.27
2019-06-08T21:07:25.391Z,101745.83
2019-06-08T21:10:29.436Z,101750.42
2019-06-08T21:13:33.455Z,101748.02
2019-06-08T21:16:38.299Z,101746.09
2019-06-08T21:19:42.339Z,101749.39
2019-06-08T21:22:50.020Z,101756.59
2019-06-08T21:25:53.640Z,101759.66
2019-06-08T21:29:00.480Z,101766.19
2019-06-08T21:32:02.965Z,101767.12
2019-06-08T21:35:07.614Z,101764.38
2019-06-08T21:38:23.385Z,101767.98
2019-06-08T21:41:17.263Z,101776.95
2019-06-08T21:44:21.270Z,101780.42
2019-06-08T21:47:27.136Z,101790.25
2019-06-08T21:50:30.428Z,101784.52
2019-06-08T21:53:34.254Z,101786.79
2019-06-08T21:56:38.276Z,101785.58
2019-06-08T21:59:42.310Z,101785.53
2019-06-08T22:02:47.986Z,101792.61
2019-06-08T22:05:51.789Z,101788.72
2019-06-08T22:08:58.861Z,101790.75
2019-06-08T22:12:01.143Z,101796.22
2019-06-08T22:15:07.518Z,101804.36
2019-06-08T22:18:12.053Z,101797.23
2019-06-08T22:21:17.988Z,101801.45
2019-06-08T22:24:21.476Z,101800.49
2019-06-08T22:27:27.253Z,101800.23
2019-06-08T22:30:39.115Z,101800.69
2019-06-08T22:33:37.789Z,101804.70
2019-06-08T22:36:42.441Z,101807.25
2019-06-08T22:39:47.894Z,101808.12
2019-06-08T22:42:52.515Z,101810.36
2019-06-08T22:45:58.907Z,101819.70
2019-06-08T22:49:02.801Z,101826.64
2019-06-08T22:52:08.172Z,101815.75
2019-06-08T22:55:12.274Z,101814.05
2019-06-08T22:58:19.127Z,101817.66
2019-06-08T23:01:22.025Z,101819.62
2019-06-08T23:04:27.624Z,101825.34
2019-06-08T23:07:32.802Z,101829.22
2019-06-08T23:10:37.474Z,101830.00
2019-06-08T23:13:41.684Z,101822.00
2019-06-08T23:16:47.182Z,101826.36
2019-06-08T23:19:51.065Z,101829.86
2019-06-08T23:22:55.669Z,101833.17
2019-06-08T23:26:02.516Z,101830.84
2019-06-08T23:29:07.773Z,101832.47
2019-06-08T23:32:11.820Z,101835.00
2019-06-08T23:35:17.982Z,101835.14
2019-06-08T23:38:21.560Z,101833.63
2019-06-08T23:41:27.279Z,101842.62
2019-06-08T23:44:31.445Z,101840.75
2019-06-08T23:47:35.283Z,101841.42
2019-06-08T23:50:39.169Z,101838.55
2019-06-08T23:53:43.144Z,101838.76
2019-06-08T23:56:47.684Z,101840.76
2019-06-08T23:59:51.909Z,101840.59
